| time (UTC) | temp F | wind direction | speed knots | gust knots | rain 1hr in | rain 24hr in | rain mn in | humidity % | barometer mb |
| 20260505160530 | 73 | 243 | 0.9 | 8.7 | 0.00 | 0.00 | 0.00 | 43 | 1016.2 |
| 20260505153046 | 72 | 41 | 1.7 | 11.3 | 0.00 | 0.00 | 0.00 | 41 | 1016.4 |
| 20260505152531 | 71 | 340 | 1.7 | 11.3 | 0.00 | 0.00 | 0.00 | 41 | 1016.4 |
| 20260505152036 | 71 | 281 | 4.3 | 10.4 | 0.00 | 0.00 | 0.00 | 41 | 1016.5 |
| 20260505151539 | 71 | 5 | 3.5 | 9.6 | 0.00 | 0.00 | 0.00 | 44 | 1016.6 |
| 20260505151033 | 70 | 263 | 4.3 | 9.6 | 0.00 | 0.00 | 0.00 | 44 | 1016.6 |
| 20260505150534 | 71 | 290 | 2.6 | 8.7 | 0.00 | 0.00 | 0.00 | 46 | 1016.6 |
| 20260505140533 | 68 | 216 | 1.7 | 7.0 | 0.00 | 0.00 | 0.00 | 56 | 1016.5 |
| 20260505125033 | 55 | 155 | 0.9 | 4.3 | 0.00 | 0.00 | 0.00 | 78 | 1016.5 |
| 20260505124544 | 54 | 150 | 0.9 | 2.6 | 0.00 | 0.00 | 0.00 | 81 | 1016.6 |
| 20260505124032 | 53 | 155 | 0.9 | 2.6 | 0.00 | 0.00 | 0.00 | 82 | 1016.5 |
| 20260505123533 | 53 | 157 | 0.9 | 1.7 | 0.00 | 0.00 | 0.00 | 82 | 1016.6 |
| 20260505123052 | 52 | 0 | 0.0 | 2.6 | 0.00 | 0.00 | 0.00 | 84 | 1016.6 |
| 20260505122530 | 51 | 0 | 0.0 | 2.6 | 0.00 | 0.00 | 0.00 | 86 | 1016.7 |
| 20260505122030 | 50 | 216 | 0.0 | 2.6 | 0.00 | 0.00 | 0.00 | 88 | 1016.7 |
| 20260505121539 | 50 | 270 | 0.0 | 1.7 | 0.00 | 0.00 | 0.00 | 89 | 1016.6 |
| 20260505121035 | 49 | 0 | 0.0 | 1.7 | 0.00 | 0.00 | 0.00 | 92 | 1016.5 |
| 20260505120533 | 48 | 278 | 0.0 | 1.7 | 0.00 | 0.00 | 0.00 | 93 | 1016.5 |
| 20260505120050 | 47 | 0 | 0.0 | 2.6 | 0.00 | 0.00 | 0.00 | 94 | 1016.5 |
| 20260505115533 | 45 | 277 | 0.0 | 2.6 | 0.00 | 0.00 | 0.00 | 95 | 1016.5 |
| 20260505115032 | 43 | 279 | 0.0 | 1.7 | 0.00 | 0.00 | 0.00 | 95 | 1016.5 |
| 20260505114546 | 42 | 0 | 0.0 | 0.0 | 0.00 | 0.00 | 0.00 | 95 | 1016.4 |
| 20260505114033 | 41 | 0 | 0.0 | 1.7 | 0.00 | 0.00 | 0.00 | 94 | 1016.4 |
| 20260505113532 | 41 | 0 | 0.0 | 1.7 | 0.00 | 0.00 | 0.00 | 94 | 1016.4 |
| 20260505113039 | 41 | 0 | 0.0 | 0.9 | 0.00 | 0.00 | 0.00 | 94 | 1016.6 |
| 20260505112530 | 40 | 0 | 0.0 | 0.9 | 0.00 | 0.00 | 0.00 | 94 | 1016.7 |
| 20260505112033 | 40 | 0 | 0.0 | 0.9 | 0.00 | 0.00 | 0.00 | 94 | 1016.6 |
| 20260505111538 | 40 | 0 | 0.0 | 0.9 | 0.00 | 0.00 | 0.00 | 94 | 1016.5 |
| 20260505111033 | 40 | 0 | 0.0 | 0.9 | 0.00 | 0.00 | 0.00 | 94 | 1016.5 |
| 20260505110530 | 40 | 0 | 0.0 | 0.9 | 0.00 | 0.00 | 0.00 | 94 | 1016.5 |
| 20260505102032 | 38 | 360 | 0.0 | 1.7 | 0.00 | 0.00 | 0.00 | 92 | 1015.9 |
| 20260505101537 | 39 | 0 | 0.0 | 2.6 | 0.00 | 0.00 | 0.00 | 94 | 1015.8 |
| 20260505101034 | 39 | 360 | 0.9 | 2.6 | 0.00 | 0.00 | 0.00 | 93 | 1015.8 |
| 20260505100530 | 39 | 360 | 1.7 | 2.6 | 0.00 | 0.00 | 0.00 | 92 | 1015.8 |
| 20260505100039 | 41 | 0 | 0.0 | 1.7 | 0.00 | 0.00 | 0.00 | 94 | 1015.8 |
| 20260505095529 | 40 | 0 | 0.0 | 2.6 | 0.00 | 0.00 | 0.00 | 94 | 1015.8 |
| 20260505095033 | 40 | 0 | 0.9 | 2.6 | 0.00 | 0.00 | 0.00 | 93 | 1015.7 |
| 20260505094548 | 41 | 360 | 0.0 | 0.9 | 0.00 | 0.00 | 0.00 | 92 | 1015.6 |
| 20260505094033 | 41 | 0 | 0.0 | 2.6 | 0.00 | 0.00 | 0.00 | 94 | 1015.7 |
| 20260505093533 | 40 | 0 | 0.0 | 2.6 | 0.00 | 0.00 | 0.00 | 93 | 1015.7 |
| 20260505093041 | 40 | 360 | 0.9 | 1.7 | 0.00 | 0.00 | 0.00 | 93 | 1015.6 |
| 20260505092533 | 40 | 0 | 0.0 | 1.7 | 0.00 | 0.00 | 0.00 | 92 | 1015.6 |
| 20260505092030 | 41 | 0 | 0.0 | 1.7 | 0.00 | 0.00 | 0.00 | 93 | 1015.6 |
| 20260505091541 | 41 | 0 | 0.0 | 2.6 | 0.00 | 0.00 | 0.00 | 93 | 1015.6 |
| 20260505091033 | 40 | 0 | 0.9 | 2.6 | 0.00 | 0.00 | 0.00 | 93 | 1015.6 |
| 20260505090532 | 40 | 360 | 1.7 | 2.6 | 0.00 | 0.00 | 0.00 | 92 | 1015.6 |
| 20260505090040 | 40 | 360 | 0.9 | 2.6 | 0.00 | 0.00 | 0.00 | 92 | 1015.7 |
| 20260505085530 | 41 | 360 | 0.9 | 2.6 | 0.00 | 0.00 | 0.00 | 93 | 1015.6 |
| 20260505085033 | 41 | 0 | 0.9 | 2.6 | 0.00 | 0.00 | 0.00 | 93 | 1015.7 |
| 20260505084558 | 41 | 0 | 0.0 | 1.7 | 0.00 | 0.00 | 0.00 | 93 | 1015.7 |
| 20260505084029 | 41 | 0 | 0.0 | 1.7 | 0.00 | 0.00 | 0.00 | 92 | 1015.6 |
| 20260505083533 | 41 | 0 | 0.0 | 1.7 | 0.00 | 0.00 | 0.00 | 93 | 1015.8 |
| 20260505083102 | 40 | 0 | 0.9 | 1.7 | 0.00 | 0.00 | 0.00 | 92 | 1015.7 |
| 20260505082529 | 40 | 0 | 0.0 | 2.6 | 0.00 | 0.00 | 0.00 | 92 | 1015.7 |
| 20260505082054 | 41 | 0 | 0.9 | 2.6 | 0.00 | 0.00 | 0.00 | 93 | 1015.7 |
| 20260505081556 | 40 | 0 | 0.0 | 1.7 | 0.00 | 0.00 | 0.00 | 93 | 1015.7 |
| 20260505081030 | 40 | 360 | 0.0 | 1.7 | 0.00 | 0.00 | 0.00 | 92 | 1015.5 |
| 20260505080532 | 40 | 0 | 0.0 | 0.9 | 0.00 | 0.00 | 0.00 | 92 | 1015.5 |
| 20260505080052 | 40 | 0 | 0.0 | 1.7 | 0.00 | 0.00 | 0.00 | 91 | 1015.5 |
| 20260505075533 | 41 | 0 | 0.0 | 1.7 | 0.00 | 0.00 | 0.00 | 91 | 1015.4 |
| 20260505075030 | 42 | 360 | 0.0 | 1.7 | 0.00 | 0.00 | 0.00 | 92 | 1015.4 |
| 20260505074539 | 41 | 0 | 0.0 | 2.6 | 0.00 | 0.00 | 0.00 | 92 | 1015.2 |
| 20260505074030 | 40 | 360 | 0.9 | 2.6 | 0.00 | 0.00 | 0.00 | 90 | 1015.2 |
| 20260505073535 | 41 | 360 | 0.0 | 2.6 | 0.00 | 0.00 | 0.00 | 90 | 1015.1 |
| 20260505073050 | 42 | 0 | 0.0 | 1.7 | 0.00 | 0.00 | 0.00 | 89 | 1015.0 |
| 20260505072530 | 43 | 360 | 0.0 | 2.6 | 0.00 | 0.00 | 0.00 | 92 | 1014.9 |
| 20260505072029 | 42 | 0 | 0.9 | 2.6 | 0.00 | 0.00 | 0.00 | 90 | 1014.9 |
| 20260505071549 | 43 | 0 | 0.0 | 1.7 | 0.00 | 0.00 | 0.00 | 90 | 1014.8 |
| 20260505071035 | 43 | 0 | 0.0 | 1.7 | 0.00 | 0.00 | 0.00 | 90 | 1014.8 |
| 20260505070535 | 43 | 360 | 0.0 | 1.7 | 0.00 | 0.00 | 0.00 | 90 | 1014.7 |
| 20260505070051 | 44 | 0 | 0.0 | 2.6 | 0.00 | 0.00 | 0.00 | 89 | 1014.8 |
| 20260505065534 | 44 | 0 | 0.0 | 2.6 | 0.00 | 0.00 | 0.00 | 90 | 1014.6 |
| 20260505065031 | 44 | 360 | 0.9 | 2.6 | 0.00 | 0.00 | 0.00 | 90 | 1014.6 |
| 20260505064541 | 45 | 360 | 0.0 | 1.7 | 0.00 | 0.00 | 0.00 | 90 | 1014.5 |
| 20260505064033 | 45 | 360 | 0.0 | 1.7 | 0.00 | 0.00 | 0.00 | 90 | 1014.5 |
| 20260505063530 | 45 | 360 | 0.0 | 1.7 | 0.00 | 0.00 | 0.00 | 90 | 1014.5 |
| 20260505063040 | 44 | 360 | 0.0 | 1.7 | 0.00 | 0.00 | 0.00 | 90 | 1014.5 |
| 20260505062530 | 45 | 360 | 0.9 | 1.7 | 0.00 | 0.00 | 0.00 | 89 | 1014.5 |
| 20260505062030 | 45 | 360 | 0.0 | 1.7 | 0.00 | 0.00 | 0.00 | 89 | 1014.4 |
| 20260505061537 | 45 | 0 | 0.0 | 1.7 | 0.00 | 0.00 | 0.00 | 89 | 1014.5 |
| 20260505061029 | 45 | 0 | 0.0 | 2.6 | 0.00 | 0.00 | 0.00 | 88 | 1014.4 |
| 20260505060529 | 46 | 360 | 0.9 | 2.6 | 0.00 | 0.00 | 0.00 | 88 | 1014.4 |
| 20260505060055 | 46 | 279 | 0.0 | 3.5 | 0.00 | 0.00 | 0.00 | 88 | 1014.4 |
| 20260505055529 | 46 | 279 | 0.0 | 3.5 | 0.00 | 0.00 | 0.00 | 89 | 1014.4 |
| 20260505055031 | 46 | 279 | 1.7 | 3.5 | 0.00 | 0.00 | 0.00 | 88 | 1014.4 |
| 20260505054538 | 47 | 0 | 0.0 | 2.6 | 0.00 | 0.00 | 0.00 | 89 | 1014.3 |
| 20260505054037 | 46 | 0 | 0.0 | 2.6 | 0.00 | 0.00 | 0.00 | 89 | 1014.3 |
| 20260505053529 | 46 | 284 | 0.9 | 2.6 | 0.00 | 0.00 | 0.00 | 88 | 1014.4 |
| 20260505053041 | 46 | 282 | 0.0 | 3.5 | 0.00 | 0.00 | 0.00 | 88 | 1014.4 |
| 20260505052530 | 47 | 282 | 0.9 | 3.5 | 0.00 | 0.00 | 0.00 | 88 | 1014.4 |
| 20260505052032 | 46 | 297 | 0.9 | 2.6 | 0.00 | 0.00 | 0.00 | 88 | 1014.4 |
| 20260505051539 | 46 | 0 | 0.9 | 2.6 | 0.00 | 0.00 | 0.00 | 87 | 1014.4 |
| 20260505051030 | 47 | 360 | 0.0 | 1.7 | 0.00 | 0.00 | 0.00 | 88 | 1014.3 |
| 20260505050530 | 48 | 0 | 0.0 | 2.6 | 0.00 | 0.00 | 0.00 | 86 | 1014.3 |
| 20260505041551 | 49 | 0 | 0.0 | 2.6 | 0.00 | 0.00 | 0.00 | 85 | 1014.2 |
| 20260505041033 | 49 | 360 | 0.0 | 2.6 | 0.00 | 0.00 | 0.00 | 85 | 1014.1 |
| 20260505040533 | 50 | 0 | 0.0 | 2.6 | 0.00 | 0.00 | 0.00 | 85 | 1014.2 |
| 20260505040047 | 50 | 360 | 0.0 | 1.7 | 0.00 | 0.00 | 0.00 | 84 | 1014.2 |
| 20260505035534 | 50 | 0 | 0.0 | 1.7 | 0.00 | 0.00 | 0.00 | 83 | 1014.2 |
| 20260505035029 | 50 | 0 | 0.0 | 2.6 | 0.00 | 0.00 | 0.00 | 83 | 1014.2 |
| 20260505034538 | 51 | 347 | 0.9 | 2.6 | 0.00 | 0.00 | 0.00 | 82 | 1014.3 |
| 20260505034030 | 51 | 0 | 0.0 | 1.7 | 0.00 | 0.00 | 0.00 | 82 | 1014.3 |
| 20260505033530 | 51 | 0 | 0.0 | 1.7 | 0.00 | 0.00 | 0.00 | 82 | 1014.3 |
| 20260505033044 | 50 | 347 | 0.0 | 0.9 | 0.00 | 0.00 | 0.00 | 81 | 1014.4 |
| 20260505032530 | 51 | 0 | 0.0 | 1.7 | 0.00 | 0.00 | 0.00 | 81 | 1014.3 |
| 20260505032032 | 51 | 347 | 0.0 | 1.7 | 0.00 | 0.00 | 0.00 | 81 | 1014.4 |
| 20260505031544 | 51 | 347 | 0.9 | 2.6 | 0.00 | 0.00 | 0.00 | 80 | 1014.4 |
| 20260505031034 | 51 | 0 | 0.0 | 2.6 | 0.00 | 0.00 | 0.00 | 79 | 1014.5 |
| 20260505030537 | 52 | 0 | 0.0 | 2.6 | 0.00 | 0.00 | 0.00 | 78 | 1014.6 |
| 20260505030104 | 52 | 348 | 0.0 | 1.7 | 0.00 | 0.00 | 0.00 | 77 | 1014.5 |
| 20260505025533 | 53 | 0 | 0.0 | 5.2 | 0.00 | 0.00 | 0.00 | 77 | 1014.5 |
| 20260505025032 | 53 | 355 | 0.0 | 5.2 | 0.00 | 0.00 | 0.00 | 76 | 1014.6 |
| 20260505024545 | 53 | 355 | 0.9 | 5.2 | 0.00 | 0.00 | 0.00 | 77 | 1014.5 |
| 20260505024033 | 53 | 0 | 0.0 | 2.6 | 0.00 | 0.00 | 0.00 | 77 | 1014.6 |
| 20260505023533 | 53 | 96 | 0.0 | 2.6 | 0.00 | 0.00 | 0.00 | 78 | 1014.6 |
| 20260505023040 | 53 | 96 | 0.0 | 3.5 | 0.00 | 0.00 | 0.00 | 78 | 1014.6 |
| 20260505022530 | 53 | 0 | 0.0 | 3.5 | 0.00 | 0.00 | 0.00 | 78 | 1014.6 |
| 20260505022030 | 53 | 157 | 0.0 | 2.6 | 0.00 | 0.00 | 0.00 | 78 | 1014.6 |
| 20260505021545 | 53 | 96 | 0.0 | 5.2 | 0.00 | 0.00 | 0.00 | 79 | 1014.6 |
| 20260505021029 | 53 | 0 | 0.9 | 5.2 | 0.00 | 0.00 | 0.00 | 78 | 1014.6 |
| 20260505020529 | 53 | 290 | 0.9 | 5.2 | 0.00 | 0.00 | 0.00 | 79 | 1014.7 |
| 20260505020047 | 52 | 0 | 0.0 | 0.9 | 0.00 | 0.00 | 0.00 | 80 | 1014.6 |
| 20260505015533 | 52 | 0 | 0.0 | 1.7 | 0.00 | 0.00 | 0.00 | 79 | 1014.7 |
| 20260505015031 | 53 | 0 | 0.0 | 3.5 | 0.00 | 0.00 | 0.00 | 79 | 1014.7 |
| 20260505014603 | 53 | 0 | 0.0 | 3.5 | 0.00 | 0.00 | 0.00 | 79 | 1014.6 |
| 20260505014034 | 53 | 252 | 0.0 | 3.5 | 0.00 | 0.00 | 0.00 | 78 | 1014.6 |
| 20260505013534 | 54 | 0 | 0.0 | 2.6 | 0.00 | 0.00 | 0.00 | 77 | 1014.6 |
| 20260505013049 | 54 | 0 | 0.0 | 2.6 | 0.00 | 0.00 | 0.00 | 77 | 1014.5 |
| 20260505012534 | 54 | 276 | 0.9 | 3.5 | 0.00 | 0.00 | 0.00 | 79 | 1014.5 |
| 20260505012033 | 53 | 276 | 0.9 | 3.5 | 0.00 | 0.00 | 0.00 | 80 | 1014.4 |
| 20260505011543 | 53 | 252 | 0.0 | 2.6 | 0.00 | 0.00 | 0.00 | 79 | 1014.5 |
| 20260505011032 | 53 | 252 | 0.9 | 2.6 | 0.00 | 0.00 | 0.00 | 79 | 1014.4 |
| 20260505010530 | 52 | 252 | 0.9 | 2.6 | 0.00 | 0.00 | 0.00 | 80 | 1014.3 |
| 20260505010052 | 53 | 252 | 0.9 | 2.6 | 0.00 | 0.00 | 0.00 | 77 | 1014.3 |
| 20260505005531 | 55 | 252 | 0.0 | 1.7 | 0.00 | 0.00 | 0.00 | 74 | 1014.2 |
| 20260505005031 | 54 | 0 | 0.0 | 1.7 | 0.00 | 0.00 | 0.00 | 76 | 1014.2 |
| 20260505004547 | 54 | 252 | 0.0 | 1.7 | 0.00 | 0.00 | 0.00 | 73 | 1014.0 |
| 20260505004033 | 56 | 0 | 0.0 | 4.3 | 0.00 | 0.00 | 0.00 | 71 | 1013.9 |
| 20260505003529 | 58 | 252 | 0.0 | 4.3 | 0.00 | 0.00 | 0.00 | 69 | 1013.9 |
| 20260505003055 | 58 | 252 | 2.6 | 4.3 | 0.00 | 0.00 | 0.00 | 65 | 1013.8 |
| 20260505002532 | 59 | 232 | 1.7 | 3.5 | 0.00 | 0.00 | 0.00 | 64 | 1013.7 |
| 20260505002033 | 60 | 232 | 0.9 | 3.5 | 0.00 | 0.00 | 0.00 | 63 | 1013.7 |
| 20260505001546 | 61 | 232 | 1.7 | 5.2 | 0.00 | 0.00 | 0.00 | 59 | 1013.7 |
| 20260505001033 | 63 | 228 | 1.7 | 5.2 | 0.00 | 0.00 | 0.00 | 54 | 1013.6 |
| 20260505000533 | 64 | 247 | 0.9 | 3.5 | 0.00 | 0.00 | 0.00 | 55 | 1013.6 |
| 20260505000048 | 64 | 244 | 0.9 | 3.5 | 0.00 | 0.00 | 0.00 | 52 | 1013.5 |
| 20260504235533 | 65 | 246 | 0.9 | 3.5 | 0.00 | 0.00 | 0.00 | 53 | 1013.5 |
| 20260504235032 | 66 | 252 | 0.0 | 2.6 | 0.00 | 0.00 | 0.00 | 52 | 1013.4 |
| 20260504234540 | 68 | 0 | 0.0 | 2.6 | 0.00 | 0.00 | 0.00 | 49 | 1013.5 |
| 20260504234033 | 69 | 252 | 0.0 | 2.6 | 0.00 | 0.00 | 0.00 | 45 | 1013.4 |
| 20260504233534 | 71 | 0 | 0.0 | 2.6 | 0.00 | 0.00 | 0.00 | 45 | 1013.5 |
| 20260504233047 | 71 | 0 | 0.0 | 3.5 | 0.00 | 0.00 | 0.00 | 44 | 1013.4 |
| 20260504232534 | 71 | 186 | 0.9 | 4.3 | 0.00 | 0.00 | 0.00 | 42 | 1013.4 |
| 20260504232033 | 72 | 274 | 0.9 | 7.8 | 0.00 | 0.00 | 0.00 | 43 | 1013.4 |
| 20260504231537 | 72 | 223 | 0.9 | 7.8 | 0.00 | 0.00 | 0.00 | 44 | 1013.4 |
| 20260504231033 | 73 | 233 | 0.9 | 7.8 | 0.00 | 0.00 | 0.00 | 42 | 1013.4 |
| 20260504230529 | 72 | 342 | 1.7 | 7.8 | 0.00 | 0.00 | 0.00 | 42 | 1013.4 |
| 20260504230047 | 72 | 239 | 2.6 | 7.0 | 0.00 | 0.00 | 0.00 | 42 | 1013.4 |
| 20260504225530 | 73 | 157 | 1.7 | 6.1 | 0.00 | 0.00 | 0.00 | 43 | 1013.4 |
| 20260504225034 | 73 | 292 | 0.9 | 6.1 | 0.00 | 0.00 | 0.00 | 42 | 1013.4 |
| 20260504224543 | 73 | 336 | 1.7 | 7.0 | 0.00 | 0.00 | 0.00 | 43 | 1013.4 |
| 20260504224034 | 73 | 248 | 0.9 | 7.0 | 0.00 | 0.00 | 0.00 | 43 | 1013.5 |
| 20260504223529 | 73 | 181 | 1.7 | 7.0 | 0.00 | 0.00 | 0.00 | 42 | 1013.4 |
| 20260504223058 | 74 | 213 | 1.7 | 7.0 | 0.00 | 0.00 | 0.00 | 42 | 1013.4 |
| 20260504222535 | 75 | 47 | 1.7 | 7.8 | 0.00 | 0.00 | 0.00 | 41 | 1013.6 |
| 20260504222033 | 74 | 232 | 1.7 | 7.8 | 0.00 | 0.00 | 0.00 | 43 | 1013.5 |
| 20260504221551 | 74 | 328 | 1.7 | 11.3 | 0.00 | 0.00 | 0.00 | 41 | 1013.4 |
| 20260504221032 | 74 | 231 | 3.5 | 11.3 | 0.00 | 0.00 | 0.00 | 43 | 1013.4 |
| 20260504220530 | 74 | 225 | 2.6 | 13.0 | 0.00 | 0.00 | 0.00 | 43 | 1013.5 |
| 20260504220050 | 73 | 234 | 4.3 | 13.0 | 0.00 | 0.00 | 0.00 | 41 | 1013.4 |
| 20260504215529 | 74 | 246 | 4.3 | 11.3 | 0.00 | 0.00 | 0.00 | 42 | 1013.6 |
| 20260504215036 | 74 | 259 | 1.7 | 9.6 | 0.00 | 0.00 | 0.00 | 43 | 1013.5 |
| 20260504214542 | 74 | 289 | 3.5 | 13.0 | 0.00 | 0.00 | 0.00 | 41 | 1013.6 |
| 20260504214031 | 74 | 55 | 5.2 | 13.0 | 0.00 | 0.00 | 0.00 | 41 | 1013.6 |
| 20260504213530 | 75 | 259 | 2.6 | 11.3 | 0.00 | 0.00 | 0.00 | 40 | 1013.7 |
| 20260504213047 | 74 | 275 | 2.6 | 11.3 | 0.00 | 0.00 | 0.00 | 41 | 1013.6 |
| 20260504212530 | 76 | 257 | 4.3 | 11.3 | 0.00 | 0.00 | 0.00 | 39 | 1013.6 |
| 20260504212029 | 75 | 114 | 2.6 | 10.4 | 0.00 | 0.00 | 0.00 | 43 | 1013.7 |
| 20260504211620 | 74 | 162 | 4.3 | 10.4 | 0.00 | 0.00 | 0.00 | 43 | 1013.7 |
| 20260504211029 | 75 | 288 | 3.5 | 10.4 | 0.00 | 0.00 | 0.00 | 41 | 1013.5 |
| 20260504210531 | 74 | 278 | 2.6 | 13.9 | 0.00 | 0.00 | 0.00 | 44 | 1013.5 |
| 20260504210049 | 74 | 242 | 5.2 | 13.9 | 0.00 | 0.00 | 0.00 | 41 | 1013.5 |
| 20260504205532 | 75 | 210 | 3.5 | 16.5 | 0.00 | 0.00 | 0.00 | 40 | 1013.5 |
| 20260504205033 | 75 | 229 | 0.9 | 16.5 | 0.00 | 0.00 | 0.00 | 43 | 1013.5 |
| 20260504204538 | 75 | 313 | 3.5 | 15.6 | 0.00 | 0.00 | 0.00 | 44 | 1013.6 |
| 20260504204033 | 74 | 237 | 4.3 | 11.3 | 0.00 | 0.00 | 0.00 | 42 | 1013.4 |
| 20260504203530 | 74 | 254 | 2.6 | 8.7 | 0.00 | 0.00 | 0.00 | 45 | 1013.5 |
| 20260504203039 | 74 | 339 | 1.7 | 8.7 | 0.00 | 0.00 | 0.00 | 41 | 1013.6 |
| 20260504202534 | 74 | 63 | 1.7 | 7.8 | 0.00 | 0.00 | 0.00 | 42 | 1013.7 |
| 20260504202029 | 74 | 324 | 2.6 | 7.8 | 0.00 | 0.00 | 0.00 | 43 | 1013.7 |
| 20260504201547 | 74 | 249 | 2.6 | 7.8 | 0.00 | 0.00 | 0.00 | 43 | 1013.6 |
| 20260504201032 | 73 | 220 | 3.5 | 7.8 | 0.00 | 0.00 | 0.00 | 49 | 1013.6 |
| 20260504200529 | 74 | 246 | 2.6 | 8.7 | 0.00 | 0.00 | 0.00 | 46 | 1013.7 |
| 20260504200045 | 71 | 230 | 3.5 | 8.7 | 0.00 | 0.00 | 0.00 | 48 | 1013.8 |
| 20260504195531 | 71 | 0 | 0.9 | 7.8 | 0.00 | 0.00 | 0.00 | 46 | 1013.9 |
| 20260504195029 | 71 | 241 | 2.6 | 7.8 | 0.00 | 0.00 | 0.00 | 48 | 1014.0 |
| 20260504194534 | 71 | 209 | 1.7 | 10.4 | 0.00 | 0.00 | 0.00 | 47 | 1014.0 |
| 20260504194029 | 71 | 267 | 4.3 | 10.4 | 0.00 | 0.00 | 0.00 | 47 | 1014.1 |
| 20260504193531 | 71 | 229 | 1.7 | 8.7 | 0.00 | 0.00 | 0.00 | 49 | 1014.0 |
| 20260504193036 | 72 | 271 | 2.6 | 11.3 | 0.00 | 0.00 | 0.00 | 45 | 1014.2 |
| 20260504192529 | 73 | 348 | 2.6 | 11.3 | 0.00 | 0.00 | 0.00 | 44 | 1014.3 |
| 20260504192029 | 72 | 243 | 5.2 | 13.9 | 0.00 | 0.00 | 0.00 | 45 | 1014.3 |
| 20260504191551 | 73 | 224 | 2.6 | 13.9 | 0.00 | 0.00 | 0.00 | 47 | 1014.5 |
| 20260504191031 | 73 | 281 | 1.7 | 8.7 | 0.00 | 0.00 | 0.00 | 47 | 1014.5 |
| 20260504190529 | 71 | 0 | 2.6 | 8.7 | 0.00 | 0.00 | 0.00 | 46 | 1014.5 |
| 20260504190045 | 72 | 327 | 3.5 | 10.4 | 0.00 | 0.00 | 0.00 | 46 | 1014.7 |
| 20260504185529 | 71 | 350 | 3.5 | 10.4 | 0.00 | 0.00 | 0.00 | 46 | 1014.6 |
| 20260504185029 | 72 | 252 | 3.5 | 7.0 | 0.00 | 0.00 | 0.00 | 49 | 1014.6 |
| 20260504184547 | 72 | 55 | 0.9 | 7.0 | 0.00 | 0.00 | 0.00 | 48 | 1014.6 |
| 20260504184033 | 71 | 250 | 3.5 | 7.0 | 0.00 | 0.00 | 0.00 | 48 | 1014.6 |
| 20260504183531 | 71 | 240 | 2.6 | 16.5 | 0.00 | 0.00 | 0.00 | 47 | 1014.6 |
| 20260504183038 | 70 | 273 | 3.5 | 16.5 | 0.00 | 0.00 | 0.00 | 49 | 1015.0 |
| 20260504182529 | 71 | 230 | 2.6 | 7.8 | 0.00 | 0.00 | 0.00 | 50 | 1014.9 |
| 20260504182031 | 70 | 273 | 2.6 | 7.0 | 0.00 | 0.00 | 0.00 | 50 | 1015.1 |
| 20260504181538 | 70 | 41 | 1.7 | 8.7 | 0.00 | 0.00 | 0.00 | 53 | 1015.1 |
| 20260504181030 | 69 | 336 | 1.7 | 8.7 | 0.00 | 0.00 | 0.00 | 50 | 1015.0 |
| 20260504180530 | 70 | 240 | 3.5 | 7.8 | 0.00 | 0.00 | 0.00 | 51 | 1015.0 |
| 20260504180044 | 69 | 340 | 1.7 | 12.2 | 0.00 | 0.00 | 0.00 | 53 | 1015.0 |
| 20260504175529 | 69 | 253 | 6.1 | 12.2 | 0.00 | 0.00 | 0.00 | 52 | 1015.2 |
| 20260504175029 | 70 | 284 | 4.3 | 12.2 | 0.00 | 0.00 | 0.00 | 50 | 1015.2 |
| 20260504174544 | 69 | 249 | 2.6 | 8.7 | 0.00 | 0.00 | 0.00 | 56 | 1015.3 |
| 20260504174029 | 68 | 254 | 1.7 | 4.3 | 0.00 | 0.00 | 0.00 | 53 | 1015.3 |
| 20260504173530 | 67 | 242 | 0.9 | 6.1 | 0.00 | 0.00 | 0.00 | 54 | 1015.7 |
| 20260504173038 | 66 | 0 | 1.7 | 7.8 | 0.00 | 0.00 | 0.00 | 52 | 1015.7 |
| 20260504172528 | 67 | 250 | 0.9 | 9.6 | 0.00 | 0.00 | 0.00 | 51 | 1015.6 |
| 20260504172029 | 67 | 246 | 2.6 | 9.6 | 0.00 | 0.00 | 0.00 | 51 | 1015.8 |
| 20260504171540 | 69 | 205 | 2.6 | 9.6 | 0.00 | 0.00 | 0.00 | 50 | 1015.7 |
| 20260504171030 | 70 | 33 | 1.7 | 9.6 | 0.00 | 0.00 | 0.00 | 50 | 1015.6 |
| 20260504170529 | 70 | 133 | 2.6 | 8.7 | 0.00 | 0.00 | 0.00 | 52 | 1015.5 |